This is the latest recevied weather packets stored in our database for station/object SQ6RR-12. If no packets are shown the sender has not sent any weather packets the latest 10 day(s).
| Time | Temp. | Humidity | Pressure | Rain* | Wind** | Luminosity | Snow |
|---|---|---|---|---|---|---|---|
| 1777913137 | 25° C | 38% | 1013 hPa | 0 mm | - | - | - |
| 1777912862 | 25° C | 38% | 1013 hPa | 0 mm | - | - | - |
| 1777912612 | 25° C | 38% | 1013 hPa | 0 mm | - | - | - |
| 1777912362 | 24.44° C | 40% | 1013 hPa | 0 mm | - | - | - |
| 1777912095 | 23.89° C | 42% | 1013.1 hPa | 0 mm | - | - | - |
| 1777911842 | 23.33° C | 40% | 1013 hPa | 0 mm | - | - | - |
| 1777911582 | 23.33° C | 41% | 1013 hPa | 0 mm | - | - | - |
| 1777911319 | 23.33° C | 39% | 1013 hPa | 0 mm | - | - | - |
| 1777911049 | 23.33° C | 40% | 1013.1 hPa | 0 mm | - | - | - |
| 1777910776 | 24.44° C | 37% | 1013 hPa | 0 mm | - | - | - |
| 1777910501 | 25° C | 37% | 1013 hPa | 0 mm | - | - | - |
| 1777910222 | 26.11° C | 35% | 1013.1 hPa | 0 mm | - | - | - |
| 1777909952 | 26.11° C | 36% | 1013.1 hPa | 0 mm | - | - | - |
| 1777909692 | 26.11° C | 34% | 1013.2 hPa | 0 mm | - | - | - |
| 1777909407 | 26.11° C | 35% | 1013.2 hPa | 0 mm | - | - | - |
| 1777909155 | 26.11° C | 35% | 1013.2 hPa | 0 mm | - | - | - |
| 1777908897 | 25.56° C | 37% | 1013.3 hPa | 0 mm | - | - | - |
| 1777908646 | 26.11° C | 34% | 1013.3 hPa | 0 mm | - | - | - |
| 1777908367 | 25.56° C | 36% | 1013.4 hPa | 0 mm | - | - | - |
| 1777908101 | 25.56° C | 35% | 1013.3 hPa | 0 mm | - | - | - |
| 1777907822 | 26.67° C | 33% | 1013.4 hPa | 0 mm | - | - | - |
| 1777907556 | 27.22° C | 34% | 1013.3 hPa | 0 mm | - | - | - |
| 1777907297 | 26.67° C | 35% | 1013.4 hPa | 0 mm | - | - | - |
| 1777907042 | 26.67° C | 35% | 1013.4 hPa | 0 mm | - | - | - |
| 1777906787 | 27.78° C | 32% | 1013.4 hPa | 0 mm | - | - | - |
* Rain latest hour (hover to see other rain measurements)
** Current wind speed in m/s (hover to see current wind gust speed)